Time;durP1;ratioP1;P1;durP2;ratioP2;P2;SDS_P1;SDS_P2;PMS_P1;PMS_P2;Temp;Humidity;BMP_temperature;BMP_pressure;BME280_temperature;BME280_humidity;BME280_pressure;Samples;Min_cycle;Max_cycle;Signal;HPM_P1;HPM_P2
2021/07/09 00:01:47;;;;;;;4.13;2.55;;;;;;;;;;4973415;28;19999;-85
2021/07/09 00:04:32;;;;;;;7.65;2.65;;;;;;;;;;4974417;28;20058;-85
2021/07/09 00:07:17;;;;;;;7.28;2.80;;;;;;;;;;4976591;28;20019;-86
2021/07/09 00:10:03;;;;;;;9.57;3.17;;;;;;;;;;4973190;28;20018;-86
2021/07/09 00:12:48;;;;;;;7.28;2.80;;;;;;;;;;4975136;28;21250;-86
2021/07/09 00:15:34;;;;;;;6.80;2.88;;;;;;;;;;4973782;28;20010;-86
2021/07/09 00:18:20;;;;;;;6.68;2.90;;;;;;;;;;4977417;28;20027;-86
2021/07/09 00:21:05;;;;;;;5.63;2.90;;;;;;;;;;4973613;28;20037;-86
2021/07/09 00:23:51;;;;;;;5.97;2.80;;;;;;;;;;4965360;28;20023;-87
2021/07/09 00:26:36;;;;;;;4.03;2.33;;;;;;;;;;4962733;28;20046;-84
2021/07/09 00:29:21;;;;;;;4.13;2.50;;;;;;;;;;4976784;28;20026;-85
2021/07/09 00:32:07;;;;;;;5.03;3.40;;;;;;;;;;4976135;28;20026;-84
2021/07/09 00:34:52;;;;;;;3.70;2.85;;;;;;;;;;4990984;28;20049;-85
2021/07/09 00:37:37;;;;;;;3.72;2.50;;;;;;;;;;4977431;28;20071;-84
2021/07/09 00:40:23;;;;;;;7.80;2.95;;;;;;;;;;4974586;28;20015;-85
2021/07/09 00:43:08;;;;;;;4.00;3.10;;;;;;;;;;4985817;28;20086;-84
2021/07/09 00:45:54;;;;;;;3.78;2.50;;;;;;;;;;4976174;28;20029;-84
2021/07/09 00:48:39;;;;;;;7.00;3.00;;;;;;;;;;4975408;28;20029;-86
2021/07/09 00:51:24;;;;;;;6.20;3.42;;;;;;;;;;4977020;28;20027;-85
2021/07/09 00:54:09;;;;;;;4.80;3.08;;;;;;;;;;4989734;28;20026;-86
2021/07/09 00:56:55;;;;;;;4.00;2.90;;;;;;;;;;4973331;28;20016;-86
2021/07/09 00:59:41;;;;;;;5.80;3.13;;;;;;;;;;4960507;28;20556;-86
2021/07/09 01:02:27;;;;;;;5.82;2.97;;;;;;;;;;4974602;28;20015;-86
2021/07/09 01:05:13;;;;;;;4.60;2.90;;;;;;;;;;4970671;28;20011;-86
2021/07/09 01:07:59;;;;;;;7.85;3.65;;;;;;;;;;4978058;28;20015;-87
2021/07/09 01:10:46;;;;;;;5.15;3.60;;;;;;;;;;4973819;28;20070;-85
2021/07/09 01:13:31;;;;;;;5.57;3.70;;;;;;;;;;4971342;28;20029;-84
2021/07/09 01:16:16;;;;;;;4.97;3.30;;;;;;;;;;4970180;28;20034;-85
2021/07/09 01:19:05;;;;;;;7.93;3.88;;;;;;;;;;4966850;28;20031;-85
2021/07/09 01:21:50;;;;;;;7.88;3.58;;;;;;;;;;4978016;28;20015;-86
2021/07/09 01:24:35;;;;;;;6.72;4.00;;;;;;;;;;4974035;28;20023;-86
2021/07/09 01:27:21;;;;;;;5.88;3.42;;;;;;;;;;4975237;28;20043;-85
2021/07/09 01:30:08;;;;;;;8.30;3.55;;;;;;;;;;4975589;28;20046;-85
2021/07/09 01:32:54;;;;;;;4.18;3.38;;;;;;;;;;4972707;28;20026;-85
2021/07/09 01:35:39;;;;;;;6.95;3.58;;;;;;;;;;4976065;28;20070;-85
2021/07/09 01:38:24;;;;;;;5.43;3.33;;;;;;;;;;4979531;28;20011;-84
2021/07/09 01:41:10;;;;;;;6.57;3.65;;;;;;;;;;4981875;28;20030;-85
2021/07/09 01:43:55;;;;;;;8.32;3.30;;;;;;;;;;4976196;28;20023;-85
2021/07/09 01:46:40;;;;;;;4.32;3.35;;;;;;;;;;4976637;28;20021;-85
2021/07/09 01:49:25;;;;;;;7.80;3.25;;;;;;;;;;4977573;28;20033;-85
2021/07/09 01:52:11;;;;;;;5.97;3.60;;;;;;;;;;4975186;28;20070;-84
2021/07/09 01:54:59;;;;;;;4.18;3.13;;;;;;;;;;4973271;28;20015;-84
2021/07/09 01:57:44;;;;;;;6.30;3.42;;;;;;;;;;4978701;28;20007;-84
2021/07/09 02:00:30;;;;;;;5.50;3.00;;;;;;;;;;4973054;28;21107;-84
2021/07/09 02:03:15;;;;;;;11.57;2.75;;;;;;;;;;4981125;28;20026;-85
2021/07/09 02:06:00;;;;;;;4.50;3.00;;;;;;;;;;4979284;28;20018;-85
2021/07/09 02:08:45;;;;;;;4.63;2.85;;;;;;;;;;4977119;28;20100;-85
2021/07/09 02:11:32;;;;;;;3.92;3.30;;;;;;;;;;4974966;28;20498;-86
2021/07/09 02:14:17;;;;;;;5.25;2.92;;;;;;;;;;4975498;28;20023;-83
2021/07/09 02:17:04;;;;;;;7.50;3.13;;;;;;;;;;4977068;28;20017;-85
2021/07/09 02:19:51;;;;;;;7.13;3.67;;;;;;;;;;4978867;28;20098;-85
2021/07/09 02:22:37;;;;;;;4.18;3.42;;;;;;;;;;4959269;28;20022;-81
2021/07/09 02:25:23;;;;;;;4.72;3.15;;;;;;;;;;4956294;28;20027;-84
2021/07/09 02:28:08;;;;;;;8.60;2.83;;;;;;;;;;4957394;28;20033;-84
2021/07/09 02:30:54;;;;;;;4.50;3.38;;;;;;;;;;4955062;28;20489;-84
2021/07/09 02:33:39;;;;;;;4.45;2.67;;;;;;;;;;4950388;28;20028;-83
2021/07/09 02:36:24;;;;;;;7.00;3.53;;;;;;;;;;4952101;28;20031;-84
2021/07/09 02:39:11;;;;;;;6.70;2.70;;;;;;;;;;4960448;28;20062;-83
2021/07/09 02:41:57;;;;;;;5.57;3.45;;;;;;;;;;4951090;28;20444;-83
2021/07/09 02:44:42;;;;;;;4.15;2.78;;;;;;;;;;4953088;28;20109;-87
2021/07/09 02:47:27;;;;;;;5.93;3.45;;;;;;;;;;4949194;28;20030;-81
2021/07/09 02:50:14;;;;;;;7.47;2.95;;;;;;;;;;4953321;28;20708;-84
2021/07/09 02:53:00;;;;;;;3.60;2.72;;;;;;;;;;4953405;28;20498;-85
2021/07/09 02:55:45;;;;;;;5.90;2.88;;;;;;;;;;4951436;28;20026;-85
2021/07/09 02:58:31;;;;;;;5.60;2.90;;;;;;;;;;4950911;28;20033;-85
2021/07/09 03:01:16;;;;;;;4.00;3.10;;;;;;;;;;4954054;28;20039;-84
2021/07/09 03:04:02;;;;;;;7.10;3.33;;;;;;;;;;4954458;28;20027;-84
2021/07/09 03:06:47;;;;;;;5.22;2.92;;;;;;;;;;4954101;28;20156;-86
2021/07/09 03:09:32;;;;;;;5.72;2.80;;;;;;;;;;4955533;28;20027;-86
2021/07/09 03:12:17;;;;;;;6.32;2.95;;;;;;;;;;4947732;28;20106;-84
2021/07/09 03:15:03;;;;;;;8.10;3.20;;;;;;;;;;4957122;28;20617;-86
2021/07/09 03:17:48;;;;;;;5.63;3.30;;;;;;;;;;4952420;28;20034;-84
2021/07/09 03:20:34;;;;;;;4.05;2.75;;;;;;;;;;4963959;28;20486;-85
2021/07/09 03:23:19;;;;;;;6.57;3.08;;;;;;;;;;4936441;28;20037;-85
2021/07/09 03:26:04;;;;;;;4.45;2.75;;;;;;;;;;4953031;28;20019;-85
2021/07/09 03:28:49;;;;;;;8.75;3.17;;;;;;;;;;4953401;28;20034;-85
2021/07/09 03:31:34;;;;;;;4.57;2.78;;;;;;;;;;4948225;28;20277;-85
2021/07/09 03:34:20;;;;;;;5.25;2.72;;;;;;;;;;4950403;28;20019;-85
2021/07/09 03:37:05;;;;;;;4.75;3.10;;;;;;;;;;4947599;28;20359;-85
2021/07/09 03:39:50;;;;;;;3.78;2.80;;;;;;;;;;4951493;28;20496;-86
2021/07/09 03:42:35;;;;;;;5.30;3.03;;;;;;;;;;4953813;28;20065;-84
2021/07/09 03:45:21;;;;;;;6.28;2.72;;;;;;;;;;4950592;28;20031;-85
2021/07/09 03:48:06;;;;;;;4.55;3.13;;;;;;;;;;4944951;28;20030;-84
2021/07/09 03:50:51;;;;;;;8.85;3.60;;;;;;;;;;4950432;28;20038;-84
2021/07/09 03:53:37;;;;;;;4.25;3.10;;;;;;;;;;4948390;28;20026;-86
2021/07/09 03:56:24;;;;;;;6.47;3.33;;;;;;;;;;4951429;28;20066;-84
2021/07/09 03:59:09;;;;;;;7.97;3.83;;;;;;;;;;4949488;28;20062;-84
2021/07/09 04:01:54;;;;;;;4.70;3.15;;;;;;;;;;4943230;28;20478;-84
2021/07/09 04:04:40;;;;;;;5.88;3.10;;;;;;;;;;4949098;28;20364;-85
2021/07/09 04:07:25;;;;;;;8.80;3.60;;;;;;;;;;4951756;28;20027;-85
2021/07/09 04:10:11;;;;;;;6.65;3.42;;;;;;;;;;4948922;28;20489;-85
2021/07/09 04:12:56;;;;;;;4.95;3.03;;;;;;;;;;4948503;28;20130;-86
2021/07/09 04:15:41;;;;;;;4.03;2.78;;;;;;;;;;4947186;28;20774;-85
2021/07/09 04:18:26;;;;;;;5.13;3.17;;;;;;;;;;4953946;28;20102;-84
2021/07/09 04:21:11;;;;;;;5.75;3.15;;;;;;;;;;4948232;28;20465;-84
2021/07/09 04:23:57;;;;;;;8.00;2.80;;;;;;;;;;4947746;28;20108;-84
2021/07/09 04:26:42;;;;;;;6.72;3.65;;;;;;;;;;4954030;28;20026;-84
2021/07/09 04:29:27;;;;;;;5.40;2.85;;;;;;;;;;4952416;28;20489;-84
2021/07/09 04:32:13;;;;;;;9.13;4.10;;;;;;;;;;4964368;28;20584;-85
2021/07/09 04:34:58;;;;;;;7.72;3.92;;;;;;;;;;4953107;28;20086;-84
2021/07/09 04:37:43;;;;;;;4.07;2.75;;;;;;;;;;4944343;28;20496;-85
2021/07/09 04:40:28;;;;;;;3.10;2.65;;;;;;;;;;4950410;28;20058;-84
2021/07/09 04:43:14;;;;;;;4.32;2.60;;;;;;;;;;4953461;28;20054;-84
2021/07/09 04:45:59;;;;;;;4.18;2.80;;;;;;;;;;4951727;28;20023;-87
2021/07/09 04:48:44;;;;;;;5.32;2.85;;;;;;;;;;4949249;28;20019;-85
2021/07/09 04:51:29;;;;;;;5.22;2.63;;;;;;;;;;4947631;28;20027;-84
2021/07/09 04:54:15;;;;;;;4.47;2.42;;;;;;;;;;4958672;28;20035;-83
2021/07/09 04:57:00;;;;;;;5.68;2.75;;;;;;;;;;4952504;28;20381;-84
2021/07/09 04:59:45;;;;;;;5.75;2.85;;;;;;;;;;4959136;28;20019;-85
2021/07/09 05:02:31;;;;;;;7.72;2.70;;;;;;;;;;4949296;28;20042;-86
2021/07/09 05:05:16;;;;;;;5.00;2.50;;;;;;;;;;4948424;28;20093;-86
2021/07/09 05:08:01;;;;;;;14.65;2.95;;;;;;;;;;4955077;28;20054;-85
2021/07/09 05:10:47;;;;;;;8.88;3.05;;;;;;;;;;4941318;28;20130;-84
2021/07/09 05:13:32;;;;;;;3.15;2.50;;;;;;;;;;4944105;28;20043;-84
2021/07/09 05:16:18;;;;;;;3.45;2.20;;;;;;;;;;4952932;28;20050;-84
2021/07/09 05:19:04;;;;;;;5.10;2.70;;;;;;;;;;4949338;28;20061;-84
2021/07/09 05:21:49;;;;;;;7.28;2.88;;;;;;;;;;4942843;28;20058;-85
2021/07/09 05:24:34;;;;;;;4.95;3.30;;;;;;;;;;4956586;28;20094;-87
2021/07/09 05:27:21;;;;;;;7.53;4.50;;;;;;;;;;4951091;28;20557;-82
2021/07/09 05:30:07;;;;;;;5.57;3.17;;;;;;;;;;4953800;28;20482;-83
2021/07/09 05:32:55;;;;;;;3.58;2.88;;;;;;;;;;4956091;28;20026;-85
2021/07/09 05:35:42;;;;;;;5.03;2.75;;;;;;;;;;4955636;28;20110;-86
2021/07/09 05:38:27;;;;;;;5.07;2.58;;;;;;;;;;4953832;28;20031;-86
2021/07/09 05:41:13;;;;;;;4.80;2.47;;;;;;;;;;4954021;28;20053;-86
2021/07/09 05:43:58;;;;;;;4.68;2.58;;;;;;;;;;4956425;28;20019;-86
2021/07/09 05:46:44;;;;;;;5.03;2.72;;;;;;;;;;4955591;28;20113;-85
2021/07/09 05:49:29;;;;;;;3.63;2.50;;;;;;;;;;4954046;28;20126;-85
2021/07/09 05:52:14;;;;;;;6.50;3.03;;;;;;;;;;4953447;28;20110;-86
2021/07/09 05:54:59;;;;;;;5.65;3.15;;;;;;;;;;4948975;28;20366;-89
2021/07/09 05:57:45;;;;;;;12.55;3.67;;;;;;;;;;4951204;28;20026;-86
2021/07/09 06:00:30;;;;;;;12.13;4.03;;;;;;;;;;4956875;28;20034;-84
2021/07/09 06:03:15;;;;;;;7.20;3.47;;;;;;;;;;4956335;28;20038;-84
2021/07/09 06:06:00;;;;;;;4.50;2.67;;;;;;;;;;4948350;28;20057;-84
2021/07/09 06:08:46;;;;;;;9.93;6.35;;;;;;;;;;4950394;28;20038;-83
2021/07/09 06:11:31;;;;;;;10.70;7.68;;;;;;;;;;4948022;28;20039;-83
2021/07/09 06:14:16;;;;;;;4.63;3.00;;;;;;;;;;4949758;28;20030;-86
2021/07/09 06:17:02;;;;;;;7.65;3.00;;;;;;;;;;4950770;28;20038;-84
2021/07/09 06:19:47;;;;;;;5.60;3.25;;;;;;;;;;4939443;28;20023;-85
2021/07/09 06:22:33;;;;;;;5.95;3.10;;;;;;;;;;4970035;28;20103;-87
2021/07/09 06:25:18;;;;;;;8.23;3.33;;;;;;;;;;4954399;28;20482;-83
2021/07/09 06:28:03;;;;;;;3.97;3.03;;;;;;;;;;4947842;28;20061;-84
2021/07/09 06:30:49;;;;;;;9.88;5.63;;;;;;;;;;4951974;28;20038;-80
2021/07/09 06:33:34;;;;;;;5.97;3.65;;;;;;;;;;4946347;28;20039;-79
2021/07/09 06:36:19;;;;;;;4.93;3.40;;;;;;;;;;4947997;28;20037;-79
2021/07/09 06:39:04;;;;;;;3.22;2.65;;;;;;;;;;4947442;28;20089;-80
2021/07/09 06:41:50;;;;;;;4.25;3.08;;;;;;;;;;4952511;28;20022;-79
2021/07/09 06:44:35;;;;;;;9.45;3.88;;;;;;;;;;4947970;28;20045;-79
2021/07/09 06:47:20;;;;;;;4.85;3.60;;;;;;;;;;4953119;28;20026;-80
2021/07/09 06:50:06;;;;;;;6.30;3.60;;;;;;;;;;4949468;28;20018;-79
2021/07/09 06:52:51;;;;;;;4.07;3.05;;;;;;;;;;4950819;28;20073;-80
2021/07/09 06:55:36;;;;;;;5.75;3.25;;;;;;;;;;4954328;28;20058;-79
2021/07/09 06:58:21;;;;;;;5.50;3.53;;;;;;;;;;4954428;28;20026;-80
2021/07/09 07:01:07;;;;;;;5.90;3.60;;;;;;;;;;4944883;28;20105;-81
2021/07/09 07:03:53;;;;;;;5.10;3.50;;;;;;;;;;4953410;28;20659;-81
2021/07/09 07:06:38;;;;;;;4.13;3.20;;;;;;;;;;4951793;28;20034;-83
2021/07/09 07:09:23;;;;;;;7.85;3.92;;;;;;;;;;4951610;28;20026;-82
2021/07/09 07:12:08;;;;;;;6.40;3.67;;;;;;;;;;4951018;28;20051;-81
2021/07/09 07:14:54;;;;;;;6.70;3.40;;;;;;;;;;4951275;28;20029;-80
2021/07/09 07:17:39;;;;;;;6.65;3.45;;;;;;;;;;4949781;28;20500;-80
2021/07/09 07:20:25;;;;;;;7.28;3.55;;;;;;;;;;4953780;28;20488;-81
2021/07/09 07:23:11;;;;;;;5.00;3.30;;;;;;;;;;4947782;28;20057;-81
2021/07/09 07:25:56;;;;;;;5.13;3.78;;;;;;;;;;4948878;28;20034;-81
2021/07/09 07:28:41;;;;;;;6.10;3.25;;;;;;;;;;4946676;28;20389;-86
2021/07/09 07:31:27;;;;;;;5.63;3.10;;;;;;;;;;4951386;28;20031;-80
2021/07/09 07:34:13;;;;;;;4.60;3.65;;;;;;;;;;4950765;28;20035;-81
2021/07/09 07:36:58;;;;;;;5.50;3.70;;;;;;;;;;4941595;28;20023;-81
2021/07/09 07:39:43;;;;;;;6.20;3.47;;;;;;;;;;4950195;28;20042;-80
2021/07/09 07:42:29;;;;;;;8.70;3.78;;;;;;;;;;4953822;28;20181;-80
2021/07/09 07:45:14;;;;;;;4.13;2.97;;;;;;;;;;4944194;28;20045;-80
2021/07/09 07:47:59;;;;;;;5.10;3.80;;;;;;;;;;4947489;28;20031;-81
2021/07/09 07:50:45;;;;;;;5.38;3.38;;;;;;;;;;4949840;28;20023;-80
2021/07/09 07:53:34;;;;;;;5.28;3.80;;;;;;;;;;4949164;28;20132;-79
2021/07/09 07:56:19;;;;;;;8.13;3.72;;;;;;;;;;4950846;28;20485;-80
2021/07/09 07:59:05;;;;;;;6.40;4.25;;;;;;;;;;4953013;28;20022;-81
2021/07/09 08:01:50;;;;;;;5.57;3.50;;;;;;;;;;4948435;28;20054;-82
2021/07/09 08:04:35;;;;;;;5.25;3.60;;;;;;;;;;4936537;28;20549;-81
2021/07/09 08:07:20;;;;;;;5.85;4.07;;;;;;;;;;4948594;28;20034;-82
2021/07/09 08:10:06;;;;;;;23.90;19.10;;;;;;;;;;4949388;28;20540;-82
2021/07/09 08:12:52;;;;;;;5.60;4.40;;;;;;;;;;4945530;28;20043;-81
2021/07/09 08:15:38;;;;;;;4.57;3.45;;;;;;;;;;4945546;28;20022;-84
2021/07/09 08:18:23;;;;;;;5.70;3.65;;;;;;;;;;4946969;28;20033;-81
2021/07/09 08:21:09;;;;;;;4.60;3.50;;;;;;;;;;4944202;28;20026;-81
2021/07/09 08:23:54;;;;;;;6.70;3.55;;;;;;;;;;4951213;28;20453;-81
2021/07/09 08:26:40;;;;;;;5.75;3.60;;;;;;;;;;4948306;28;20437;-81
2021/07/09 08:29:25;;;;;;;4.82;3.40;;;;;;;;;;4948961;28;20113;-81
2021/07/09 08:32:11;;;;;;;5.18;3.65;;;;;;;;;;4941429;28;20548;-82
2021/07/09 08:34:56;;;;;;;6.20;2.92;;;;;;;;;;4951559;28;20057;-83
2021/07/09 08:37:42;;;;;;;4.25;3.33;;;;;;;;;;4956696;28;20026;-82
2021/07/09 08:40:31;;;;;;;6.60;3.70;;;;;;;;;;4957468;28;20056;-82
2021/07/09 08:43:16;;;;;;;7.53;3.50;;;;;;;;;;4951185;28;20294;-84
2021/07/09 08:46:02;;;;;;;5.00;3.40;;;;;;;;;;4951003;28;20389;-81
2021/07/09 08:48:47;;;;;;;3.80;2.78;;;;;;;;;;4955836;28;20031;-83
2021/07/09 08:51:33;;;;;;;5.60;3.30;;;;;;;;;;4958337;28;20037;-83
2021/07/09 08:54:19;;;;;;;5.18;3.20;;;;;;;;;;4952148;28;20023;-82
2021/07/09 08:57:04;;;;;;;6.10;3.95;;;;;;;;;;4956120;28;20534;-81
2021/07/09 08:59:50;;;;;;;4.93;3.53;;;;;;;;;;4953471;28;20092;-81
2021/07/09 09:02:44;;;;;;;6.20;3.42;;;;;;;;;;4956609;28;20101;-83
2021/07/09 09:05:29;;;;;;;10.68;4.70;;;;;;;;;;4949189;28;20026;-82
2021/07/09 09:08:16;;;;;;;7.45;3.45;;;;;;;;;;4953434;28;20046;-81
2021/07/09 09:11:02;;;;;;;4.53;3.08;;;;;;;;;;4948639;28;20050;-81
2021/07/09 09:13:47;;;;;;;10.50;8.20;;;;;;;;;;4953042;28;20382;-81
2021/07/09 09:16:35;;;;;;;7.00;4.18;;;;;;;;;;4952090;28;20061;-81
2021/07/09 09:19:21;;;;;;;8.30;4.47;;;;;;;;;;4952960;28;20037;-81
2021/07/09 09:22:08;;;;;;;6.45;3.72;;;;;;;;;;4954077;28;20031;-81
2021/07/09 09:24:57;;;;;;;7.22;3.40;;;;;;;;;;4952113;28;20482;-81
2021/07/09 09:27:43;;;;;;;5.38;3.55;;;;;;;;;;4956008;28;20078;-82
2021/07/09 09:30:29;;;;;;;5.55;3.72;;;;;;;;;;4951904;28;20253;-81
2021/07/09 09:33:14;;;;;;;6.35;3.38;;;;;;;;;;4954142;28;20109;-81
2021/07/09 09:36:04;;;;;;;7.97;3.47;;;;;;;;;;4951295;28;20106;-81
2021/07/09 09:38:49;;;;;;;19.15;15.20;;;;;;;;;;4952814;28;20050;-80
2021/07/09 09:41:34;;;;;;;16.08;11.82;;;;;;;;;;4950487;28;20078;-81
2021/07/09 09:44:20;;;;;;;6.57;4.80;;;;;;;;;;4956684;28;20023;-80
2021/07/09 09:47:13;;;;;;;6.95;3.67;;;;;;;;;;4951595;28;20114;-81
2021/07/09 09:50:15;;;;;;;5.88;3.97;;;;;;;;;;4961073;28;20030;-81
2021/07/09 09:53:00;;;;;;;6.05;3.88;;;;;;;;;;4954842;28;20023;-81
2021/07/09 09:55:46;;;;;;;7.15;4.05;;;;;;;;;;4954650;28;20019;-81
2021/07/09 09:58:31;;;;;;;5.38;3.85;;;;;;;;;;4950781;28;20035;-81
2021/07/09 10:01:28;;;;;;;5.65;3.50;;;;;;;;;;4951182;28;20027;-83
2021/07/09 10:04:14;;;;;;;5.20;3.75;;;;;;;;;;4954038;28;20033;-83
2021/07/09 10:07:00;;;;;;;5.47;4.00;;;;;;;;;;4946706;28;20029;-84
2021/07/09 10:09:45;;;;;;;6.43;4.10;;;;;;;;;;4951885;28;20015;-80
2021/07/09 10:12:31;;;;;;;6.38;4.35;;;;;;;;;;4943970;28;20061;-82
2021/07/09 10:15:17;;;;;;;9.23;5.20;;;;;;;;;;4945325;28;20019;-84
2021/07/09 10:18:02;;;;;;;19.27;9.32;;;;;;;;;;4956622;28;20019;-80
2021/07/09 10:20:48;;;;;;;13.40;7.13;;;;;;;;;;4958517;28;20118;-81
2021/07/09 10:23:33;;;;;;;7.35;4.10;;;;;;;;;;4952683;28;20118;-82
2021/07/09 10:26:18;;;;;;;13.35;5.93;;;;;;;;;;4951066;28;20116;-81
2021/07/09 10:29:11;;;;;;;10.27;5.82;;;;;;;;;;4948876;28;20031;-86
2021/07/09 10:32:01;;;;;;;15.35;6.63;;;;;;;;;;4950830;28;20058;-83
2021/07/09 10:34:50;;;;;;;8.18;5.18;;;;;;;;;;4968707;28;20015;-85
2021/07/09 10:37:36;;;;;;;10.10;4.30;;;;;;;;;;4962722;28;20059;-87
2021/07/09 10:40:27;;;;;;;7.50;5.35;;;;;;;;;;4971515;28;20639;-86
2021/07/09 10:43:17;;;;;;;6.43;4.53;;;;;;;;;;4956183;28;20466;-84
2021/07/09 10:46:02;;;;;;;;;;;;;;;;;;4953824;28;20061;-88
2021/07/09 10:48:47;;;;;;;9.90;6.88;;;;;;;;;;4947186;29;19932;-85
2021/07/09 10:51:48;;;;;;;11.63;6.97;;;;;;;;;;4951039;28;20027;-85
2021/07/09 10:54:33;;;;;;;12.50;6.28;;;;;;;;;;4952258;28;20429;-86
2021/07/09 10:57:20;;;;;;;7.43;5.80;;;;;;;;;;4952143;28;20030;-86
2021/07/09 11:00:24;;;;;;;10.07;6.50;;;;;;;;;;4961361;28;20251;-84
2021/07/09 11:03:10;;;;;;;11.70;6.63;;;;;;;;;;4944571;28;20042;-79
2021/07/09 11:05:59;;;;;;;8.43;6.38;;;;;;;;;;4959124;28;20031;-81
2021/07/09 11:08:52;;;;;;;10.93;6.53;;;;;;;;;;4950523;28;20097;-82
2021/07/09 11:11:38;;;;;;;12.57;6.63;;;;;;;;;;4953429;28;20062;-83
2021/07/09 11:14:33;;;;;;;9.63;6.18;;;;;;;;;;4938855;28;20466;-80
2021/07/09 11:17:21;;;;;;;14.48;6.63;;;;;;;;;;4951533;28;20078;-80
2021/07/09 11:20:18;;;;;;;10.50;6.82;;;;;;;;;;4948030;28;20077;-80
2021/07/09 11:23:05;;;;;;;14.35;6.88;;;;;;;;;;4959922;28;20110;-80
2021/07/09 11:25:50;;;;;;;13.30;6.90;;;;;;;;;;4950801;28;20106;-80
2021/07/09 11:28:35;;;;;;;11.27;5.95;;;;;;;;;;4953450;28;20448;-88
2021/07/09 11:31:34;;;;;;;10.60;6.45;;;;;;;;;;4964667;28;20038;-89
2021/07/09 11:34:20;;;;;;;12.63;7.13;;;;;;;;;;4958397;28;20030;-86
2021/07/09 11:37:10;;;;;;;9.13;6.47;;;;;;;;;;4953790;28;20027;-84
2021/07/09 11:39:57;;;;;;;8.10;5.68;;;;;;;;;;4954981;28;20026;-83
2021/07/09 11:42:42;;;;;;;8.73;5.88;;;;;;;;;;4952594;28;20034;-89
2021/07/09 11:45:29;;;;;;;8.63;6.38;;;;;;;;;;4957163;28;20027;-86
2021/07/09 11:48:19;;;;;;;8.23;5.40;;;;;;;;;;4934850;28;20031;-84
2021/07/09 11:51:05;;;;;;;9.55;5.90;;;;;;;;;;4949747;28;20385;-85
2021/07/09 11:54:07;;;;;;;8.38;6.00;;;;;;;;;;4938287;28;21560;-84
2021/07/09 11:56:55;;;;;;;10.80;6.63;;;;;;;;;;4924284;29;20552;-85
2021/07/09 11:59:42;;;;;;;8.75;6.07;;;;;;;;;;4950672;28;20062;-84
2021/07/09 12:02:28;;;;;;;8.23;5.65;;;;;;;;;;4946543;28;20064;-84
2021/07/09 12:05:15;;;;;;;13.52;6.47;;;;;;;;;;4937500;29;20039;-84
2021/07/09 12:08:01;;;;;;;10.88;7.10;;;;;;;;;;4940875;28;20026;-84
2021/07/09 12:10:46;;;;;;;9.48;6.28;;;;;;;;;;4944276;28;20098;-84
2021/07/09 12:13:31;;;;;;;14.75;9.50;;;;;;;;;;4952332;28;20035;-84
2021/07/09 12:16:20;;;;;;;19.92;14.02;;;;;;;;;;4955901;28;20031;-84
2021/07/09 12:19:05;;;;;;;10.60;6.50;;;;;;;;;;4949642;29;20019;-84
2021/07/09 12:21:54;;;;;;;10.55;6.93;;;;;;;;;;4934728;28;20035;-84
2021/07/09 12:24:48;;;;;;;11.65;6.68;;;;;;;;;;4941721;28;20027;-84
2021/07/09 12:27:34;;;;;;;8.05;6.05;;;;;;;;;;4939839;28;20034;-84
2021/07/09 12:30:21;;;;;;;9.65;6.30;;;;;;;;;;4933889;29;20094;-84
2021/07/09 12:33:07;;;;;;;9.80;6.55;;;;;;;;;;4948835;28;20027;-85
2021/07/09 12:36:12;;;;;;;7.43;5.57;;;;;;;;;;4941663;28;20100;-85
2021/07/09 12:38:59;;;;;;;7.75;5.50;;;;;;;;;;4946206;28;20082;-85
2021/07/09 12:41:47;;;;;;;12.45;5.80;;;;;;;;;;4938794;28;20023;-85
2021/07/09 12:44:34;;;;;;;10.65;5.85;;;;;;;;;;4938155;28;20034;-85
2021/07/09 12:47:19;;;;;;;9.73;4.68;;;;;;;;;;4955046;28;20038;-84
2021/07/09 12:50:16;;;;;;;5.57;3.90;;;;;;;;;;4950558;28;20043;-85
2021/07/09 12:53:18;;;;;;;4.60;3.72;;;;;;;;;;4940300;28;20389;-84
2021/07/09 12:56:14;;;;;;;7.05;3.35;;;;;;;;;;4955166;28;20026;-85
2021/07/09 12:59:04;;;;;;;11.35;8.88;;;;;;;;;;4940548;29;20027;-85
2021/07/09 13:01:57;;;;;;;9.32;5.78;;;;;;;;;;4947950;29;20114;-85
2021/07/09 13:04:43;;;;;;;7.30;4.07;;;;;;;;;;4949252;28;20553;-85
2021/07/09 13:07:28;;;;;;;7.00;4.07;;;;;;;;;;4949251;28;20416;-85
2021/07/09 13:10:17;;;;;;;6.05;3.63;;;;;;;;;;4954969;28;20026;-85
2021/07/09 13:13:15;;;;;;;11.27;4.00;;;;;;;;;;4940692;29;20071;-86
2021/07/09 13:16:11;;;;;;;5.65;4.38;;;;;;;;;;4936963;29;20024;-85
2021/07/09 13:18:58;;;;;;;5.95;3.85;;;;;;;;;;4938972;28;20043;-85
2021/07/09 13:21:49;;;;;;;8.23;4.20;;;;;;;;;;4954378;28;20027;-85
2021/07/09 13:24:35;;;;;;;5.65;3.72;;;;;;;;;;4947915;29;20586;-86
2021/07/09 13:27:20;;;;;;;7.25;4.05;;;;;;;;;;4940262;28;20617;-85
2021/07/09 13:30:07;;;;;;;5.53;3.80;;;;;;;;;;4952153;29;20442;-89
2021/07/09 13:32:52;;;;;;;6.30;3.85;;;;;;;;;;4950383;28;20035;-85
2021/07/09 13:35:37;;;;;;;6.25;3.47;;;;;;;;;;4956227;28;20425;-85
2021/07/09 13:38:23;;;;;;;13.77;8.60;;;;;;;;;;4950571;28;20065;-84
2021/07/09 13:41:08;;;;;;;5.28;3.75;;;;;;;;;;4957749;28;20532;-84
2021/07/09 13:43:54;;;;;;;6.22;4.10;;;;;;;;;;4940255;29;20073;-86
2021/07/09 13:46:41;;;;;;;5.95;3.30;;;;;;;;;;4938308;29;20415;-85
2021/07/09 13:49:26;;;;;;;7.05;3.65;;;;;;;;;;4952732;28;20018;-85
2021/07/09 13:52:12;;;;;;;7.43;4.32;;;;;;;;;;4948108;28;20034;-84
2021/07/09 13:54:57;;;;;;;4.90;3.58;;;;;;;;;;4939793;29;20038;-85
2021/07/09 13:57:46;;;;;;;5.07;3.45;;;;;;;;;;4939796;28;20019;-85
2021/07/09 14:00:32;;;;;;;5.65;3.15;;;;;;;;;;4950549;28;20053;-87
2021/07/09 14:03:17;;;;;;;4.97;3.13;;;;;;;;;;4952065;28;20413;-85
2021/07/09 14:06:03;;;;;;;4.30;2.88;;;;;;;;;;4951161;28;20537;-86
2021/07/09 14:08:48;;;;;;;4.40;3.38;;;;;;;;;;4942768;29;20092;-85
2021/07/09 14:11:33;;;;;;;6.65;2.33;;;;;;;;;;4953511;28;20051;-85
2021/07/09 14:14:19;;;;;;;9.13;5.93;;;;;;;;;;4939384;29;20027;-84
2021/07/09 14:17:05;;;;;;;7.38;3.35;;;;;;;;;;4947538;28;20023;-84
2021/07/09 14:19:50;;;;;;;4.82;2.92;;;;;;;;;;4944688;28;20022;-84
2021/07/09 14:22:35;;;;;;;4.82;3.10;;;;;;;;;;4957006;28;20035;-82
2021/07/09 14:25:21;;;;;;;4.63;2.85;;;;;;;;;;4957359;28;20045;-86
2021/07/09 14:28:06;;;;;;;5.78;3.45;;;;;;;;;;4948545;29;20027;-84
2021/07/09 14:30:52;;;;;;;5.93;2.63;;;;;;;;;;4951532;28;20029;-84
2021/07/09 14:33:37;;;;;;;5.50;3.03;;;;;;;;;;4955088;28;20050;-85
2021/07/09 14:36:22;;;;;;;4.40;2.60;;;;;;;;;;4948442;29;20776;-87
2021/07/09 14:39:08;;;;;;;5.28;3.33;;;;;;;;;;4940695;29;20039;-83
2021/07/09 14:41:53;;;;;;;4.55;2.70;;;;;;;;;;4950543;28;20023;-83
2021/07/09 14:44:38;;;;;;;5.25;3.35;;;;;;;;;;4953912;28;20081;-84
2021/07/09 14:47:23;;;;;;;5.35;3.70;;;;;;;;;;4940299;28;20109;-84
2021/07/09 14:50:11;;;;;;;6.38;3.55;;;;;;;;;;4945627;28;20042;-84
2021/07/09 14:52:56;;;;;;;4.97;3.50;;;;;;;;;;4956740;28;20117;-83
2021/07/09 14:55:42;;;;;;;5.32;3.00;;;;;;;;;;4953397;28;20534;-84
2021/07/09 14:58:27;;;;;;;6.05;3.42;;;;;;;;;;4947445;28;20034;-84
2021/07/09 15:01:12;;;;;;;5.95;3.70;;;;;;;;;;4944311;29;20027;-86
2021/07/09 15:03:58;;;;;;;5.40;3.28;;;;;;;;;;4946856;28;20433;-83
2021/07/09 15:06:43;;;;;;;6.93;3.45;;;;;;;;;;4945358;29;20553;-84
2021/07/09 15:09:28;;;;;;;4.45;2.95;;;;;;;;;;4953289;28;20023;-83
2021/07/09 15:12:13;;;;;;;8.00;3.45;;;;;;;;;;4943265;28;20537;-85
2021/07/09 15:14:59;;;;;;;5.82;3.55;;;;;;;;;;4950418;28;20031;-84
2021/07/09 15:17:45;;;;;;;5.57;2.95;;;;;;;;;;4954677;28;20496;-87
2021/07/09 15:20:30;;;;;;;10.05;7.22;;;;;;;;;;4934459;29;20124;-86
2021/07/09 15:23:15;;;;;;;12.98;9.80;;;;;;;;;;4938090;29;20517;-85
2021/07/09 15:26:01;;;;;;;5.20;3.03;;;;;;;;;;4954926;28;20037;-85
2021/07/09 15:28:46;;;;;;;8.80;3.10;;;;;;;;;;4941635;29;20485;-85
2021/07/09 15:31:31;;;;;;;2.90;2.30;;;;;;;;;;4948964;28;20082;-85
2021/07/09 15:34:17;;;;;;;4.78;2.40;;;;;;;;;;4946126;29;20039;-85
2021/07/09 15:37:03;;;;;;;6.20;2.95;;;;;;;;;;4934977;28;20474;-84
2021/07/09 15:39:48;;;;;;;3.33;2.47;;;;;;;;;;4953828;28;20027;-85
2021/07/09 15:42:34;;;;;;;4.07;2.30;;;;;;;;;;4956590;28;20517;-85
2021/07/09 15:45:19;;;;;;;4.95;2.70;;;;;;;;;;4955680;28;20398;-84
2021/07/09 15:48:04;;;;;;;3.65;2.63;;;;;;;;;;4947256;28;20038;-86
2021/07/09 15:50:49;;;;;;;3.42;2.80;;;;;;;;;;4938210;29;20066;-86
2021/07/09 15:53:35;;;;;;;4.45;2.85;;;;;;;;;;4952802;28;20400;-85
2021/07/09 15:56:20;;;;;;;15.52;12.23;;;;;;;;;;4945111;28;20023;-85
2021/07/09 15:59:06;;;;;;;4.88;3.38;;;;;;;;;;4956128;28;20022;-86
2021/07/09 16:01:51;;;;;;;6.43;2.17;;;;;;;;;;4955754;28;20022;-84
2021/07/09 16:04:37;;;;;;;3.53;2.67;;;;;;;;;;4953663;28;20073;-87
2021/07/09 16:07:22;;;;;;;5.50;2.90;;;;;;;;;;4942005;28;20070;-88
2021/07/09 16:10:07;;;;;;;3.90;2.75;;;;;;;;;;4946648;28;20023;-86
2021/07/09 16:12:52;;;;;;;4.13;3.03;;;;;;;;;;4944892;28;20178;-85
2021/07/09 16:15:38;;;;;;;6.50;3.42;;;;;;;;;;4945838;29;20031;-85
2021/07/09 16:18:23;;;;;;;6.25;2.97;;;;;;;;;;4952478;28;20551;-85
2021/07/09 16:21:09;;;;;;;6.78;2.88;;;;;;;;;;4954749;28;20117;-84
2021/07/09 16:23:54;;;;;;;4.93;2.92;;;;;;;;;;4952859;28;20122;-84
2021/07/09 16:26:39;;;;;;;5.05;3.10;;;;;;;;;;4937752;28;20508;-87
2021/07/09 16:29:25;;;;;;;4.45;2.90;;;;;;;;;;4949666;28;20069;-85
2021/07/09 16:32:10;;;;;;;4.00;3.25;;;;;;;;;;4950005;29;20182;-85
2021/07/09 16:34:55;;;;;;;6.57;3.15;;;;;;;;;;4938341;28;20026;-85